createdAt,value
2018-10-21T00:01:17.785Z,91.22
2018-10-21T00:04:11.249Z,89.90
2018-10-21T00:07:04.302Z,92.27
2018-10-21T00:09:57.671Z,89.75
2018-10-21T00:12:50.961Z,77.97
2018-10-21T00:15:44.205Z,75.08
2018-10-21T00:18:37.308Z,70.87
2018-10-21T00:21:32.364Z,66.75
2018-10-21T00:24:26.023Z,66.90
2018-10-21T00:27:19.290Z,69.75
2018-10-21T00:30:12.385Z,68.33
2018-10-21T00:33:05.513Z,68.12
2018-10-21T00:35:58.869Z,68.72
2018-10-21T00:38:52.359Z,72.72
2018-10-21T00:41:45.907Z,82.15
2018-10-21T00:44:40.458Z,99.40
2018-10-21T00:47:34.976Z,108.17
2018-10-21T00:50:30.247Z,118.05
2018-10-21T00:53:23.857Z,123.87
2018-10-21T00:56:16.945Z,126.70
2018-10-21T00:59:10.893Z,130.70
2018-10-21T01:02:04.268Z,128.32
2018-10-21T01:04:57.526Z,131.20
2018-10-21T01:07:50.794Z,128.97
2018-10-21T01:10:44.043Z,127.65
2018-10-21T01:13:37.009Z,121.47
2018-10-21T01:16:30.273Z,120.82
2018-10-21T01:19:23.416Z,115.03
2018-10-21T01:22:16.732Z,114.45
2018-10-21T01:25:14.195Z,113.50
2018-10-21T01:28:07.818Z,110.92
2018-10-21T01:31:04.351Z,111.10
2018-10-21T01:33:57.524Z,112.03
2018-10-21T01:36:50.844Z,108.87
2018-10-21T01:40:24.185Z,98.30
2018-10-21T01:43:45.922Z,99.87
2018-10-21T01:46:39.140Z,95.47
2018-10-21T01:49:32.645Z,101.47
2018-10-21T01:52:28.592Z,103.90
2018-10-21T01:55:21.734Z,101.90
2018-10-21T01:58:15.591Z,100.25
2018-10-21T02:01:08.972Z,102.87
2018-10-21T02:04:02.320Z,102.62
2018-10-21T02:06:55.596Z,86.45
2018-10-21T02:09:50.906Z,94.55
2018-10-21T02:12:44.343Z,94.00
2018-10-21T02:15:37.840Z,90.50
2018-10-21T02:18:30.704Z,88.52
2018-10-21T02:21:26.476Z,88.80
2018-10-21T02:24:17.217Z,90.55
2018-10-21T02:27:10.710Z,89.50
2018-10-21T02:30:06.715Z,81.25
2018-10-21T02:33:00.645Z,77.80
2018-10-21T02:35:53.849Z,80.07
2018-10-21T02:38:48.709Z,74.87
2018-10-21T02:42:02.188Z,74.50
2018-10-21T02:44:56.981Z,75.12
2018-10-21T02:47:51.578Z,74.95
2018-10-21T02:50:46.866Z,72.87
2018-10-21T02:53:41.702Z,74.65
2018-10-21T02:56:36.951Z,75.35
2018-10-21T02:59:31.421Z,77.82
2018-10-21T03:02:27.077Z,79.62
2018-10-21T03:05:21.357Z,80.55
2018-10-21T03:08:15.372Z,87.08
2018-10-21T03:11:11.046Z,89.95
2018-10-21T03:14:06.250Z,84.35
2018-10-21T03:17:02.959Z,85.47
2018-10-21T03:19:57.565Z,83.25
2018-10-21T03:22:53.202Z,82.37
2018-10-21T03:25:49.517Z,82.12
2018-10-21T03:28:44.540Z,87.90
2018-10-21T03:31:41.185Z,91.35
2018-10-21T03:34:36.839Z,88.40
2018-10-21T03:37:31.123Z,85.70
2018-10-21T03:40:26.702Z,85.00
2018-10-21T03:43:21.126Z,91.40
2018-10-21T03:46:18.428Z,101.27
2018-10-21T03:49:14.092Z,101.87
2018-10-21T03:52:09.870Z,131.47
2018-10-21T03:55:05.766Z,120.80
2018-10-21T03:58:01.691Z,114.05
2018-10-21T04:00:57.895Z,117.35
2018-10-21T04:03:53.177Z,116.15
2018-10-21T04:06:48.718Z,119.67
2018-10-21T04:09:44.813Z,114.20
2018-10-21T04:12:40.913Z,109.80
2018-10-21T04:15:36.845Z,113.88
2018-10-21T04:18:31.973Z,114.10
2018-10-21T04:21:28.047Z,120.87
2018-10-21T04:24:24.103Z,122.22
2018-10-21T04:27:20.762Z,116.93
2018-10-21T04:30:20.729Z,108.47
2018-10-21T04:33:45.668Z,111.88
2018-10-21T04:36:40.106Z,104.00
2018-10-21T04:40:16.679Z,105.07
2018-10-21T04:43:13.174Z,106.52
2018-10-21T04:46:09.679Z,104.97
2018-10-21T04:49:05.093Z,105.25
2018-10-21T04:52:05.101Z,102.25
2018-10-21T04:55:10.693Z,100.55
2018-10-21T04:58:05.557Z,102.72
2018-10-21T05:01:02.648Z,96.70
2018-10-21T05:04:15.020Z,86.02
2018-10-21T05:07:09.927Z,82.42
2018-10-21T05:10:07.364Z,76.82
2018-10-21T05:13:01.048Z,73.80
2018-10-21T05:15:55.169Z,70.57
2018-10-21T05:18:48.955Z,68.90
2018-10-21T05:21:42.619Z,69.15
2018-10-21T05:24:36.548Z,68.42
2018-10-21T05:27:30.441Z,69.03
2018-10-21T05:30:28.130Z,65.80
2018-10-21T05:33:22.679Z,67.97
2018-10-21T05:36:17.632Z,65.90
2018-10-21T05:39:14.759Z,65.57
2018-10-21T05:42:08.352Z,61.08
2018-10-21T05:45:02.097Z,54.20
2018-10-21T05:47:56.721Z,55.48
2018-10-21T05:50:51.840Z,51.63
2018-10-21T05:53:46.223Z,53.20
2018-10-21T05:56:41.706Z,54.88
2018-10-21T05:59:39.907Z,55.83
2018-10-21T06:02:31.433Z,55.65
2018-10-21T06:05:52.866Z,52.95
2018-10-21T06:08:47.003Z,53.78
2018-10-21T06:11:45.006Z,50.88
2018-10-21T06:14:38.869Z,53.10
2018-10-21T06:17:33.926Z,51.83
2018-10-21T06:20:44.305Z,53.40
2018-10-21T06:23:40.104Z,52.60
2018-10-21T06:26:35.213Z,54.95
2018-10-21T06:29:33.004Z,54.05
2018-10-21T06:32:32.901Z,50.23
2018-10-21T06:35:29.397Z,50.43
2018-10-21T06:38:24.645Z,51.53
2018-10-21T06:41:19.814Z,54.35
2018-10-21T06:44:18.138Z,55.85
2018-10-21T06:47:12.509Z,53.52
2018-10-21T06:50:08.254Z,52.20
2018-10-21T06:53:03.092Z,51.35
2018-10-21T06:55:58.038Z,50.63
2018-10-21T06:58:52.625Z,51.85
2018-10-21T07:01:46.145Z,50.43
2018-10-21T07:04:39.791Z,52.45
2018-10-21T07:07:32.971Z,51.58
2018-10-21T07:10:26.539Z,49.50
2018-10-21T07:13:20.375Z,50.85
2018-10-21T07:16:14.462Z,49.08
2018-10-21T07:19:07.554Z,50.30
2018-10-21T07:22:00.817Z,53.30
2018-10-21T07:24:54.948Z,52.30
2018-10-21T07:27:48.695Z,53.08
2018-10-21T07:30:42.304Z,54.63
2018-10-21T07:33:36.116Z,56.28
2018-10-21T07:36:30.168Z,56.70
2018-10-21T07:39:23.942Z,55.73
2018-10-21T07:42:17.350Z,53.40
2018-10-21T07:45:11.146Z,56.40
2018-10-21T07:48:05.091Z,54.90
2018-10-21T07:50:58.737Z,56.15
2018-10-21T07:53:52.318Z,53.28
2018-10-21T07:56:46.168Z,51.73
2018-10-21T07:59:39.905Z,49.35
2018-10-21T08:02:33.439Z,50.28
2018-10-21T08:06:01.555Z,52.15
2018-10-21T08:08:55.083Z,51.13
2018-10-21T08:11:48.375Z,49.30
2018-10-21T08:14:41.748Z,56.68
2018-10-21T08:17:35.182Z,51.08
2018-10-21T08:20:28.212Z,51.95
2018-10-21T08:23:22.010Z,52.62
2018-10-21T08:26:15.770Z,51.92
2018-10-21T08:29:08.946Z,51.13
2018-10-21T08:32:02.601Z,51.55
2018-10-21T08:34:56.209Z,51.77
2018-10-21T08:37:49.640Z,49.18
2018-10-21T08:40:43.433Z,49.98
2018-10-21T08:43:37.404Z,47.27
2018-10-21T08:46:31.094Z,48.08
2018-10-21T08:49:24.573Z,49.25
2018-10-21T08:52:18.041Z,48.02
2018-10-21T08:55:12.426Z,49.20
2018-10-21T08:58:05.979Z,49.98
2018-10-21T09:00:59.566Z,43.65
2018-10-21T09:03:53.102Z,45.48
2018-10-21T09:06:46.876Z,44.30
2018-10-21T09:09:40.866Z,45.12
2018-10-21T09:12:34.259Z,44.50
2018-10-21T09:15:27.702Z,45.48
2018-10-21T09:18:21.366Z,51.65
2018-10-21T09:21:15.045Z,51.28
2018-10-21T09:24:08.703Z,52.33
2018-10-21T09:27:02.519Z,56.15
2018-10-21T09:29:57.127Z,58.85
2018-10-21T09:32:51.059Z,58.55
2018-10-21T09:35:46.049Z,59.27
2018-10-21T09:38:40.218Z,57.83
2018-10-21T09:41:34.629Z,58.10
2018-10-21T09:44:28.295Z,59.48
2018-10-21T09:47:23.205Z,53.75
2018-10-21T09:50:19.115Z,51.02
2018-10-21T09:53:13.332Z,51.23
2018-10-21T09:56:07.813Z,51.42
2018-10-21T09:59:05.469Z,46.28
2018-10-21T10:02:16.342Z,46.80
2018-10-21T10:05:10.430Z,46.80
2018-10-21T10:08:05.045Z,44.08
2018-10-21T10:10:59.894Z,44.03
2018-10-21T10:13:59.074Z,45.28
2018-10-21T10:16:54.520Z,44.93
2018-10-21T10:19:49.465Z,44.98
2018-10-21T10:22:43.995Z,45.63
2018-10-21T10:25:39.053Z,45.10
2018-10-21T10:28:36.820Z,44.38
2018-10-21T10:31:28.271Z,46.90
2018-10-21T10:34:22.973Z,46.58
2018-10-21T10:37:17.672Z,45.25
2018-10-21T10:40:13.057Z,45.67
2018-10-21T10:43:08.125Z,47.27
2018-10-21T10:46:03.018Z,44.80
2018-10-21T10:48:59.689Z,44.05
2018-10-21T10:51:54.992Z,44.58
2018-10-21T10:54:50.209Z,43.40
2018-10-21T10:57:44.929Z,45.23
2018-10-21T11:00:39.968Z,48.23
2018-10-21T11:03:35.981Z,44.23
2018-10-21T11:06:31.119Z,42.90
2018-10-21T11:09:26.422Z,44.83
2018-10-21T11:12:21.387Z,45.28
2018-10-21T11:15:16.604Z,44.48
2018-10-21T11:18:11.937Z,45.08
2018-10-21T11:21:07.841Z,45.78
2018-10-21T11:24:06.183Z,49.40
2018-10-21T11:26:56.361Z,48.42
2018-10-21T11:29:52.105Z,48.28
2018-10-21T11:32:51.026Z,48.20
2018-10-21T11:35:45.616Z,49.20
2018-10-21T11:38:41.082Z,51.23
2018-10-21T11:41:35.856Z,46.23
2018-10-21T11:44:30.309Z,45.08
2018-10-21T11:47:25.081Z,46.58
2018-10-21T11:50:19.796Z,46.33
2018-10-21T11:53:14.289Z,45.73
2018-10-21T11:56:09.309Z,42.65
2018-10-21T11:59:03.891Z,44.13
2018-10-21T12:01:58.581Z,44.90
2018-10-21T12:04:52.756Z,42.80
2018-10-21T12:07:48.375Z,40.80
2018-10-21T12:10:43.384Z,38.95
2018-10-21T12:13:38.418Z,37.38
2018-10-21T12:16:33.934Z,39.13
2018-10-21T12:19:28.981Z,36.68
2018-10-21T12:22:24.721Z,38.10
2018-10-21T12:25:19.471Z,37.88
2018-10-21T12:28:17.708Z,37.85
2018-10-21T12:31:11.940Z,42.58
2018-10-21T12:34:06.926Z,44.50
2018-10-21T12:37:01.082Z,42.95
2018-10-21T12:39:56.549Z,43.58
2018-10-21T12:42:50.078Z,42.35
2018-10-21T12:45:44.265Z,43.60
2018-10-21T12:48:40.533Z,45.67
2018-10-21T12:51:35.201Z,50.23
2018-10-21T12:54:30.479Z,47.43
2018-10-21T12:57:25.095Z,43.78
2018-10-21T13:00:19.084Z,46.55
2018-10-21T13:03:14.497Z,44.13
2018-10-21T13:06:08.988Z,46.65
2018-10-21T13:09:03.091Z,49.75
2018-10-21T13:11:58.626Z,54.00
2018-10-21T13:14:53.435Z,51.65
2018-10-21T13:17:49.144Z,52.17
2018-10-21T13:20:44.346Z,54.98
2018-10-21T13:23:39.963Z,63.80
2018-10-21T13:26:34.477Z,57.03
2018-10-21T13:29:29.050Z,51.58
2018-10-21T13:32:24.445Z,54.25
2018-10-21T13:35:18.612Z,51.83
2018-10-21T13:38:13.529Z,52.78
2018-10-21T13:41:08.632Z,58.92
2018-10-21T13:44:03.611Z,57.45
2018-10-21T13:46:58.664Z,59.10
2018-10-21T13:49:53.822Z,63.75
2018-10-21T13:52:49.262Z,67.78
2018-10-21T13:55:44.442Z,62.55
2018-10-21T13:58:39.621Z,67.87
2018-10-21T14:01:34.410Z,69.05
2018-10-21T14:04:29.552Z,60.25
2018-10-21T14:07:24.423Z,56.92
2018-10-21T14:10:19.296Z,57.90
2018-10-21T14:13:14.611Z,60.12
2018-10-21T14:16:09.438Z,57.73
2018-10-21T14:19:03.123Z,57.27
2018-10-21T14:21:56.513Z,55.58
2018-10-21T14:24:50.592Z,54.00
2018-10-21T14:27:45.068Z,55.33
2018-10-21T14:30:39.975Z,54.85
2018-10-21T14:33:35.027Z,55.88
2018-10-21T14:36:29.628Z,56.33
2018-10-21T14:39:24.394Z,56.53
2018-10-21T14:42:19.443Z,58.35
2018-10-21T14:45:16.090Z,55.40
2018-10-21T14:48:11.371Z,56.05
2018-10-21T14:51:06.373Z,55.08
2018-10-21T14:54:01.112Z,57.38
2018-10-21T14:56:56.378Z,57.53
2018-10-21T14:59:52.221Z,58.58
2018-10-21T15:02:46.376Z,57.75
2018-10-21T15:05:40.169Z,58.25
2018-10-21T15:08:34.409Z,57.98
2018-10-21T15:11:28.181Z,57.90
2018-10-21T15:14:22.602Z,58.55
2018-10-21T15:17:17.336Z,59.67
2018-10-21T15:20:12.866Z,62.43
2018-10-21T15:23:07.070Z,61.83
2018-10-21T15:26:05.346Z,60.63
2018-10-21T15:29:04.735Z,63.63
2018-10-21T15:31:54.532Z,60.63
2018-10-21T15:34:48.433Z,62.17
2018-10-21T15:37:42.152Z,64.95
2018-10-21T15:40:35.724Z,67.05
2018-10-21T15:43:29.363Z,65.78
2018-10-21T15:46:22.942Z,66.67
2018-10-21T15:49:17.643Z,66.60
2018-10-21T15:52:12.130Z,68.60
2018-10-21T15:55:06.561Z,65.03
2018-10-21T15:58:01.043Z,63.40
2018-10-21T16:00:55.309Z,63.38
2018-10-21T16:03:49.244Z,61.70
2018-10-21T16:06:47.155Z,59.58
2018-10-21T16:09:38.778Z,57.50
2018-10-21T16:12:33.421Z,56.85
2018-10-21T16:15:29.661Z,59.13
2018-10-21T16:18:23.083Z,57.23
2018-10-21T16:21:16.482Z,54.75
2018-10-21T16:24:09.549Z,57.88
2018-10-21T16:27:03.039Z,59.60
2018-10-21T16:29:56.322Z,59.45
2018-10-21T16:32:49.959Z,59.30
2018-10-21T16:35:43.348Z,59.05
2018-10-21T16:38:46.050Z,58.35
2018-10-21T16:41:42.110Z,59.85
2018-10-21T16:44:36.887Z,59.93
2018-10-21T16:47:31.045Z,59.05
2018-10-21T16:50:24.125Z,57.67
2018-10-21T16:53:26.547Z,57.98
2018-10-21T16:56:19.861Z,58.33
2018-10-21T16:59:13.400Z,60.92
2018-10-21T17:02:07.095Z,62.23
2018-10-21T17:05:01.166Z,65.10
2018-10-21T17:07:54.744Z,64.67
2018-10-21T17:10:48.432Z,65.50
2018-10-21T17:13:42.150Z,67.12
2018-10-21T17:16:35.680Z,68.75
2018-10-21T17:19:29.190Z,64.27
2018-10-21T17:22:22.425Z,66.35
2018-10-21T17:25:15.898Z,63.20
2018-10-21T17:28:08.959Z,60.67
2018-10-21T17:31:02.151Z,59.90
2018-10-21T17:33:55.680Z,61.35
2018-10-21T17:36:49.348Z,60.45
2018-10-21T17:39:47.174Z,62.17
2018-10-21T17:42:44.400Z,61.08
2018-10-21T17:45:37.724Z,62.53
2018-10-21T17:48:31.204Z,65.50
2018-10-21T17:51:24.486Z,64.25
2018-10-21T17:54:17.855Z,61.60
2018-10-21T17:57:10.987Z,62.17
2018-10-21T18:00:04.229Z,60.40
2018-10-21T18:02:57.574Z,60.65
2018-10-21T18:05:51.144Z,60.60
2018-10-21T18:08:46.767Z,59.18
2018-10-21T18:11:40.429Z,57.35
2018-10-21T18:14:33.850Z,57.55
2018-10-21T18:17:27.214Z,58.65
2018-10-21T18:20:20.939Z,57.67
2018-10-21T18:23:17.165Z,58.02
2018-10-21T18:26:11.079Z,59.45
2018-10-21T18:29:04.379Z,62.00
2018-10-21T18:31:58.440Z,59.50
2018-10-21T18:34:52.166Z,60.30
2018-10-21T18:37:45.915Z,61.83
2018-10-21T18:40:40.928Z,62.73
2018-10-21T18:43:35.187Z,63.63
2018-10-21T18:46:29.773Z,63.90
2018-10-21T18:49:23.267Z,64.22
2018-10-21T18:52:16.780Z,64.10
2018-10-21T18:55:10.619Z,64.15
2018-10-21T18:58:03.628Z,63.92
2018-10-21T19:00:56.525Z,62.78
2018-10-21T19:03:49.376Z,62.90
2018-10-21T19:06:42.663Z,63.17
2018-10-21T19:09:35.883Z,60.95
2018-10-21T19:12:29.289Z,60.67
2018-10-21T19:15:22.420Z,61.77
2018-10-21T19:18:15.628Z,62.38
2018-10-21T19:21:08.649Z,61.45
2018-10-21T19:24:01.911Z,58.45
2018-10-21T19:26:54.844Z,57.90
2018-10-21T19:29:48.447Z,57.13
2018-10-21T19:32:41.904Z,58.08
2018-10-21T19:35:35.151Z,57.60
2018-10-21T19:38:28.057Z,56.20
2018-10-21T19:41:21.287Z,56.58
2018-10-21T19:44:14.679Z,57.15
2018-10-21T19:47:08.930Z,59.13
2018-10-21T19:50:02.013Z,60.60
2018-10-21T19:52:55.026Z,59.23
2018-10-21T19:55:48.510Z,58.50
2018-10-21T19:58:41.728Z,59.67
2018-10-21T20:01:34.831Z,59.00
2018-10-21T20:04:27.980Z,59.40
2018-10-21T20:07:24.217Z,59.42
2018-10-21T20:10:18.791Z,57.30
2018-10-21T20:13:11.862Z,58.35
2018-10-21T20:16:05.581Z,60.70
2018-10-21T20:18:59.022Z,60.03
2018-10-21T20:21:53.197Z,60.15
2018-10-21T20:24:46.569Z,56.33
2018-10-21T20:27:40.405Z,59.45
2018-10-21T20:30:33.962Z,57.27
2018-10-21T20:33:27.656Z,58.52
2018-10-21T20:36:20.847Z,56.75
2018-10-21T20:39:14.286Z,58.30
2018-10-21T20:42:07.302Z,58.58
2018-10-21T20:45:00.574Z,57.45
2018-10-21T20:47:53.818Z,59.18
2018-10-21T20:50:46.669Z,57.50
2018-10-21T20:53:39.882Z,57.43
2018-10-21T20:56:33.357Z,58.68
2018-10-21T20:59:27.694Z,58.08
2018-10-21T21:02:21.213Z,57.27
2018-10-21T21:05:14.470Z,57.08
2018-10-21T21:08:07.502Z,56.40
2018-10-21T21:11:00.483Z,57.30
2018-10-21T21:13:53.646Z,57.95
2018-10-21T21:16:46.909Z,57.30
2018-10-21T21:19:40.285Z,56.83
2018-10-21T21:22:33.640Z,57.90
2018-10-21T21:25:27.068Z,56.05
2018-10-21T21:28:20.115Z,57.00
2018-10-21T21:31:13.450Z,57.70
2018-10-21T21:34:06.856Z,56.53
2018-10-21T21:37:00.152Z,59.35
2018-10-21T21:39:53.442Z,58.85
2018-10-21T21:42:46.668Z,59.42
2018-10-21T21:45:39.597Z,57.95
2018-10-21T21:48:33.701Z,57.50
2018-10-21T21:51:26.855Z,58.20
2018-10-21T21:54:20.061Z,57.27
2018-10-21T21:57:13.612Z,57.25
2018-10-21T22:00:06.810Z,56.53
2018-10-21T22:03:00.215Z,56.80
2018-10-21T22:05:53.776Z,57.10
2018-10-21T22:08:47.457Z,55.23
2018-10-21T22:11:40.725Z,53.40
2018-10-21T22:14:34.211Z,53.58
2018-10-21T22:17:27.073Z,53.90
2018-10-21T22:20:19.924Z,52.88
2018-10-21T22:23:13.262Z,53.68
2018-10-21T22:26:06.720Z,53.52
2018-10-21T22:28:59.793Z,52.38
2018-10-21T22:31:53.111Z,53.13
2018-10-21T22:34:46.350Z,51.28
2018-10-21T22:37:39.792Z,52.33
2018-10-21T22:40:35.601Z,54.35
2018-10-21T22:43:29.081Z,50.83
2018-10-21T22:46:22.852Z,51.20
2018-10-21T22:49:16.397Z,51.05
2018-10-21T22:52:12.820Z,52.30
2018-10-21T22:55:02.950Z,50.70
2018-10-21T22:57:56.827Z,50.58
2018-10-21T23:00:50.291Z,49.18
2018-10-21T23:03:43.560Z,51.80
2018-10-21T23:06:37.126Z,50.30
2018-10-21T23:09:30.396Z,53.25
2018-10-21T23:12:23.364Z,52.93
2018-10-21T23:15:16.285Z,53.42
2018-10-21T23:18:09.558Z,52.05
2018-10-21T23:21:02.695Z,52.80
2018-10-21T23:23:59.306Z,51.53
2018-10-21T23:26:49.306Z,49.23
2018-10-21T23:29:43.195Z,50.70
2018-10-21T23:32:36.315Z,49.63
2018-10-21T23:35:29.652Z,49.27
2018-10-21T23:38:22.900Z,47.90
2018-10-21T23:41:15.741Z,49.38
2018-10-21T23:44:09.800Z,49.23
2018-10-21T23:47:03.038Z,48.38
2018-10-21T23:49:57.681Z,48.92
2018-10-21T23:52:51.332Z,47.43
2018-10-21T23:55:44.647Z,46.40
2018-10-21T23:58:37.924Z,45.55
